Details From RJOH - MIHO
To RJOO - OSAKA INTL
Flight Number -
Tags decoded
Created
Modified
Stats Distance 125 nm / 231 km
Max Altitude 0 ft / 0 m
Waypoints 5
Social Downloads 0
Likes 0
Share VATSIM

Download

Looking for another format? Having issues loading an existing format? Contact us
Advertisement - Login to hide

Notes

Requested: RJOH RAKDA Y188 TOZAN Y38 ROKKO V55 SANDA RJOO Unmatched points: RAKDA Y188

Route

RJOH TOZAN ROKKO V55 SANDA RJOO

ID Type Via Altitude (ft/m) Position (lat/lon) Dist (leg/tot) Name
O RJOH APT - 0 / 0 35.49147 / 133.23572 - / 0 nm MIHO
TOZAN FIX - 0 / 0 35.27197 / 134.48483 62 / 62 nm
ROKKO FIX - 0 / 0 35.11681 / 135.30023 41 / 103 nm
SANDA FIX V55 (AWY-LO) 0 / 0 34.93295 / 135.38248 11 / 115 nm
O RJOO APT - 0 / 0 34.78560 / 135.43802 9 / 124 nm OSAKA INTL

Altitude Profile

Advertisement - Login to hide

RJOH

Details ICAO RJOH (YGJ)
Name MIHO
Region Japan
Timezone Asia/Tokyo (UTC+9.0)
Stats Elevation 20 ft / 6 m (AMSL)
Location 35.491500° 133.236000°
Runways 1
Magnetic Variation 8.087° W

METAR

RJOH 131800Z 32011KT 9999 -SHRA FEW015 BKN035 BKN050 06/00 Q1026

Decode

TAF

TAF RJOH 131706Z 1318/1500 31010KT 9999 -SHRA FEW008 BKN025 BKN060 BECMG 1320/1322 36010KT TEMPO 1409/1415 4000 SHRA BR

Decode

Departure Runways

ID Width Length Bearing (true/mag) Surface Threshold Overrun Markings Lighting
07 148 ft / 45 m 6,558 ft / 1,999 m 63.80° / 71.89° ASPHALT 0 ft / 0 m 200 ft / 61 m APP EDGE THRESHOLD SSALR
25 148 ft / 45 m 6,558 ft / 1,999 m 243.81° / 251.90° ASPHALT 0 ft / 0 m 200 ft / 61 m PREC-APP EDGE THRESHOLD ALSF-I

RJOO

Details ICAO RJOO (ITM)
Name Osaka Intl
Region Japan
Timezone Asia/Tokyo (UTC+9.0)
Stats Elevation 39 ft / 12 m (AMSL)
Location 34.785600° 135.438000°
Runways 2
Magnetic Variation 7.745° W

METAR

Not found

TAF

TAF RJOO 131707Z 1318/1500 34011KT 9999 FEW025 SCT045

Decode

Destination Runways

ID Width Length Bearing (true/mag) Surface Threshold Overrun Markings Lighting
14L 143 ft / 44 m 5,995 ft / 1,827 m 135.18° / 142.92° ASPHALT 128 ft / 39 m 679 ft / 207 m PREC-APP CENTERLINE EDGE THRESHOLD MALSR REIL-OMNI
14R 200 ft / 61 m 9,846 ft / 3,001 m 135.14° / 142.89° ASPHALT 128 ft / 39 m 213 ft / 65 m PREC-APP CENTERLINE EDGE THRESHOLD MALS REIL-OMNI
32L 200 ft / 61 m 9,846 ft / 3,001 m 315.15° / 322.90° ASPHALT 125 ft / 38 m 249 ft / 76 m PREC-APP CENTERLINE EDGE THRESHOLD SALS TDZ
32R 143 ft / 44 m 5,995 ft / 1,827 m 315.18° / 322.93° ASPHALT 118 ft / 36 m 571 ft / 174 m PREC-APP CENTERLINE EDGE THRESHOLD ALSF-I TDZ

Approach Navaids

Runway Type Ident Frequency Range Bearing (true/mag) Slope Elevation
32L GS ISK 110.10 MHz 10 nm / 19 km 315.28° / 323.03 ° 3.00° 54 ft / 16 m (AMSL)
32L OM OM - - 315.14° / 322.89 ° - 50 ft / 15 m (AMSL)
32L MM MM - - 315.14° / 322.89 ° - 50 ft / 15 m (AMSL)
32L LOC-ILS ISK 110.10 MHz 18 nm / 33 km 315.13° / 322.88 ° - 50 ft / 15 m (AMSL)

Popular Alternatives